KAIZ

Lee C Fine Memorial Airport

Kaiser/Lake Ozark, Missouri, USA
METAR KAIZ 141256Z AUTO 16003KT 10SM -RA BKN070 OVC100 22/21 A3000 RMK AO2 SLP148 P0000 T02170211 TSNO
Observed Flight Rules
Aug-14 @ 12:56 UTC (45 minutes ago) Visual Flight Rules
Wind Visibility Clouds Conditions
160° at 3 knots 10 miles
  • Broken at 7,000' AGL
  • Overcast at 10,000' AGL
  • Light Rain
Temperatures Readings Precipitation
Current 22°C / 72°F
Dewpoint 21°C / 70°F
Humidity 94%
Altimeter 30" Hg
Pressure 1014.8 hPa
Elevation 265
Current Rain 0.005
METAR KAIZ 141256Z AUTO 16003KT 10SM -RA BKN070 OVC100 22/21 A3000 RMK AO2 SLP148 P0000 T02170211 TSNO
Observed Flight Rules
Aug-14 @ 12:56 UTC
(45 minutes ago)
VFR
Wind Visibility
160° at 3 knots 10 miles
Clouds
  • Broken at 7,000' AGL
  • Overcast at 10,000' AGL
Conditions
  • Light Rain
Temperature Dewpoint
22°C / 72°F 21°C / 70°F
Humidity Altimeter Pressure
94% 30" Hg 1014.8 hPa
Current Rain
0.005